createdAt,value
2023-10-29T00:00:18.703Z,0.75
2023-10-29T00:02:45.793Z,0.70
2023-10-29T00:05:12.700Z,0.70
2023-10-29T00:07:40.256Z,0.60
2023-10-29T00:10:08.239Z,0.50
2023-10-29T00:12:35.132Z,0.60
2023-10-29T00:15:02.509Z,0.50
2023-10-29T00:17:29.437Z,0.80
2023-10-29T00:19:56.285Z,0.70
2023-10-29T00:22:23.038Z,0.50
2023-10-29T00:24:50.373Z,0.70
2023-10-29T00:27:17.145Z,0.50
2023-10-29T00:29:43.981Z,0.70
2023-10-29T00:32:10.857Z,0.50
2023-10-29T00:34:37.688Z,0.60
2023-10-29T00:37:04.695Z,0.70
2023-10-29T00:39:31.841Z,0.80
2023-10-29T00:41:58.715Z,0.70
2023-10-29T00:44:26.377Z,0.77
2023-10-29T00:46:53.294Z,0.60
2023-10-29T00:49:20.091Z,0.50
2023-10-29T00:51:47.379Z,0.63
2023-10-29T00:54:14.237Z,0.60
2023-10-29T00:56:41.266Z,0.88
2023-10-29T00:59:09.000Z,0.50
2023-10-29T01:01:35.795Z,0.50
2023-10-29T01:04:02.667Z,0.73
2023-10-29T01:06:29.663Z,0.60
2023-10-29T01:08:56.796Z,0.52
2023-10-29T01:11:23.791Z,0.50
2023-10-29T01:13:51.034Z,0.80
2023-10-29T01:16:17.900Z,0.55
2023-10-29T01:18:44.681Z,0.85
2023-10-29T01:21:11.575Z,0.90
2023-10-29T01:23:38.724Z,0.70
2023-10-29T01:26:05.507Z,0.75
2023-10-29T01:28:32.794Z,0.70
2023-10-29T01:31:01.030Z,0.98
2023-10-29T01:33:28.013Z,0.63
2023-10-29T01:35:54.989Z,0.60
2023-10-29T01:38:21.810Z,0.80
2023-10-29T01:40:49.375Z,0.70
2023-10-29T01:43:17.120Z,0.63
2023-10-29T01:45:44.380Z,0.80
2023-10-29T01:48:11.245Z,0.60
2023-10-29T01:50:38.258Z,0.60
2023-10-29T01:53:05.158Z,0.65
2023-10-29T01:55:36.840Z,0.95
2023-10-29T01:58:04.164Z,0.80
2023-10-29T02:00:31.150Z,0.90
2023-10-29T02:02:58.126Z,0.85
2023-10-29T02:05:24.997Z,0.93
2023-10-29T02:07:51.808Z,0.88
2023-10-29T02:10:18.586Z,0.60
2023-10-29T02:12:45.393Z,0.70
2023-10-29T02:15:12.179Z,0.70
2023-10-29T02:17:39.098Z,0.60
2023-10-29T02:20:07.878Z,0.80
2023-10-29T02:22:34.701Z,0.70
2023-10-29T02:25:01.494Z,0.75
2023-10-29T02:27:28.289Z,0.65
2023-10-29T02:29:55.465Z,0.50
2023-10-29T02:32:23.555Z,0.68
2023-10-29T02:34:50.384Z,0.57
2023-10-29T02:37:17.202Z,0.60
2023-10-29T02:39:44.374Z,0.60
2023-10-29T02:42:15.603Z,0.50
2023-10-29T02:44:42.436Z,0.60
2023-10-29T02:47:09.200Z,0.95
2023-10-29T02:49:35.969Z,0.40
2023-10-29T02:52:02.961Z,0.60
2023-10-29T02:54:29.912Z,0.47
2023-10-29T02:56:56.695Z,0.50
2023-10-29T02:59:23.480Z,0.50
2023-10-29T03:01:50.254Z,0.95
2023-10-29T03:04:17.246Z,0.50
2023-10-29T03:06:44.301Z,0.65
2023-10-29T03:09:11.101Z,0.85
2023-10-29T03:11:37.894Z,0.60
2023-10-29T03:14:04.723Z,0.55
2023-10-29T03:16:31.583Z,0.50
2023-10-29T03:18:58.395Z,0.40
2023-10-29T03:21:25.204Z,0.40
2023-10-29T03:23:52.010Z,0.40
2023-10-29T03:26:18.809Z,0.52
2023-10-29T03:28:45.555Z,0.47
2023-10-29T03:31:16.788Z,0.40
2023-10-29T03:33:44.084Z,0.40
2023-10-29T03:36:10.934Z,0.60
2023-10-29T03:38:37.779Z,0.65
2023-10-29T03:41:04.677Z,0.40
2023-10-29T03:43:31.590Z,0.40
2023-10-29T03:45:58.398Z,0.60
2023-10-29T03:48:25.308Z,0.47
2023-10-29T03:50:52.265Z,0.25
2023-10-29T03:53:19.150Z,0.40
2023-10-29T03:55:46.110Z,0.40
2023-10-29T03:58:12.891Z,0.40
2023-10-29T04:24:16.645Z,0.30
2023-10-29T04:26:44.387Z,0.38
2023-10-29T04:29:11.224Z,0.55
2023-10-29T04:31:37.979Z,0.30
2023-10-29T04:34:04.878Z,0.60
2023-10-29T04:36:31.721Z,0.43
2023-10-29T04:38:58.527Z,0.50
2023-10-29T04:41:25.326Z,0.63
2023-10-29T04:43:52.077Z,0.60
2023-10-29T04:46:19.666Z,0.52
2023-10-29T04:48:46.466Z,0.63
2023-10-29T04:51:13.256Z,0.50
2023-10-29T04:53:40.043Z,0.77
2023-10-29T04:56:07.147Z,0.70
2023-10-29T04:58:33.964Z,0.77
2023-10-29T05:01:01.167Z,0.50
2023-10-29T05:03:29.109Z,0.40
2023-10-29T05:05:56.671Z,0.60
2023-10-29T05:08:23.616Z,0.50
2023-10-29T05:10:50.493Z,0.60
2023-10-29T05:13:17.696Z,0.60
2023-10-29T05:15:44.577Z,0.65
2023-10-29T05:18:11.569Z,0.50
2023-10-29T05:20:39.257Z,0.40
2023-10-29T05:23:06.363Z,0.60
2023-10-29T05:25:33.166Z,0.63
2023-10-29T05:28:00.143Z,0.55
2023-10-29T05:30:26.970Z,0.70
2023-10-29T05:32:54.022Z,0.65
2023-10-29T05:35:22.212Z,0.70
2023-10-29T05:37:49.019Z,0.55
2023-10-29T05:40:16.091Z,0.80
2023-10-29T05:42:42.906Z,0.60
2023-10-29T05:45:10.422Z,0.60
2023-10-29T05:47:37.409Z,0.85
2023-10-29T05:50:05.349Z,0.50
2023-10-29T05:52:33.012Z,0.70
2023-10-29T05:55:04.597Z,0.90
2023-10-29T05:57:31.408Z,0.60
2023-10-29T05:59:58.261Z,0.60
2023-10-29T06:02:25.441Z,0.60
2023-10-29T06:04:52.489Z,0.60
2023-10-29T06:07:19.545Z,0.60
2023-10-29T06:09:46.338Z,0.60
2023-10-29T06:12:13.178Z,0.63
2023-10-29T06:14:40.107Z,1.10
2023-10-29T06:17:19.565Z,0.70
2023-10-29T06:19:53.643Z,0.70
2023-10-29T06:22:20.403Z,0.90
2023-10-29T06:24:47.455Z,0.52
2023-10-29T06:27:14.397Z,0.50
2023-10-29T06:29:41.940Z,0.60
2023-10-29T06:32:09.479Z,0.82
2023-10-29T06:34:36.234Z,0.75
2023-10-29T06:37:03.068Z,0.70
2023-10-29T06:39:29.817Z,0.50
2023-10-29T06:41:56.607Z,0.88
2023-10-29T06:44:23.409Z,0.60
2023-10-29T06:46:50.323Z,0.80
2023-10-29T06:49:17.065Z,0.40
2023-10-29T06:51:43.919Z,0.52
2023-10-29T06:54:10.665Z,0.65
2023-10-29T06:56:37.422Z,0.88
2023-10-29T06:59:04.222Z,0.65
2023-10-29T07:01:31.001Z,0.77
2023-10-29T07:03:58.315Z,0.70
2023-10-29T07:06:25.181Z,0.60
2023-10-29T07:08:51.957Z,0.57
2023-10-29T07:11:20.275Z,0.70
2023-10-29T07:13:47.113Z,0.80
2023-10-29T07:16:17.791Z,0.80
2023-10-29T07:18:44.733Z,0.60
2023-10-29T07:21:11.604Z,0.60
2023-10-29T07:23:38.472Z,0.80
2023-10-29T07:26:05.246Z,0.63
2023-10-29T07:28:32.139Z,0.50
2023-10-29T07:30:58.944Z,0.47
2023-10-29T07:33:25.815Z,0.43
2023-10-29T07:35:52.658Z,0.52
2023-10-29T07:38:19.517Z,0.68
2023-10-29T07:40:46.314Z,0.50
2023-10-29T07:43:13.100Z,0.82
2023-10-29T07:45:40.023Z,0.90
2023-10-29T07:48:06.975Z,0.50
2023-10-29T07:50:33.872Z,0.57
2023-10-29T07:53:00.640Z,0.50
2023-10-29T07:55:27.425Z,1.00
2023-10-29T07:57:54.276Z,0.60
2023-10-29T08:00:21.136Z,0.60
2023-10-29T08:02:48.190Z,0.60
2023-10-29T08:05:16.302Z,0.90
2023-10-29T08:07:43.089Z,0.68
2023-10-29T08:10:10.876Z,0.60
2023-10-29T08:12:37.758Z,0.47
2023-10-29T08:15:05.126Z,0.82
2023-10-29T08:17:32.084Z,0.70
2023-10-29T08:20:01.496Z,0.98
2023-10-29T08:22:28.283Z,0.85
2023-10-29T08:24:56.698Z,0.70
2023-10-29T08:27:24.622Z,0.88
2023-10-29T08:29:51.466Z,0.90
2023-10-29T08:32:18.753Z,0.90
2023-10-29T08:34:46.022Z,1.02
2023-10-29T08:37:13.184Z,0.77
2023-10-29T08:39:40.219Z,0.95
2023-10-29T08:42:07.232Z,1.20
2023-10-29T08:44:34.096Z,1.00
2023-10-29T08:47:00.916Z,1.10
2023-10-29T08:49:27.749Z,0.80
2023-10-29T08:51:54.572Z,0.65
2023-10-29T08:54:21.373Z,0.65
2023-10-29T08:56:50.320Z,0.80
2023-10-29T08:59:17.217Z,0.80
2023-10-29T09:01:44.773Z,0.77
2023-10-29T09:04:12.077Z,0.95
2023-10-29T09:06:39.216Z,1.13
2023-10-29T09:09:06.433Z,0.70
2023-10-29T09:11:33.319Z,1.00
2023-10-29T09:14:02.157Z,0.77
2023-10-29T09:16:29.000Z,1.10
2023-10-29T09:18:55.786Z,0.70
2023-10-29T09:21:22.929Z,0.95
2023-10-29T09:23:49.777Z,0.85
2023-10-29T09:26:18.049Z,1.13
2023-10-29T09:28:45.166Z,0.80
2023-10-29T09:31:18.770Z,0.60
2023-10-29T09:33:46.172Z,1.15
2023-10-29T09:36:14.509Z,0.82
2023-10-29T09:38:42.430Z,0.70
2023-10-29T09:41:09.550Z,0.68
2023-10-29T09:43:42.549Z,0.70
2023-10-29T09:46:12.252Z,0.50
2023-10-29T09:48:40.835Z,0.60
2023-10-29T09:51:07.981Z,0.90
2023-10-29T09:53:39.238Z,1.15
2023-10-29T09:56:10.619Z,0.55
2023-10-29T09:58:37.958Z,0.70
2023-10-29T10:01:06.657Z,0.50
2023-10-29T10:03:33.643Z,0.60
2023-10-29T10:06:01.488Z,0.93
2023-10-29T10:08:29.602Z,0.80
2023-10-29T10:11:00.809Z,0.85
2023-10-29T10:13:39.983Z,0.73
2023-10-29T10:16:17.166Z,1.13
2023-10-29T10:18:55.957Z,0.70
2023-10-29T10:21:40.371Z,0.52
2023-10-29T10:24:08.307Z,0.77
2023-10-29T10:26:40.231Z,0.90
2023-10-29T10:29:09.324Z,0.57
2023-10-29T10:31:37.010Z,0.77
2023-10-29T10:34:24.191Z,0.60
2023-10-29T10:36:50.939Z,0.70
2023-10-29T10:39:24.214Z,0.60
2023-10-29T10:41:51.184Z,0.80
2023-10-29T10:44:20.378Z,0.65
2023-10-29T10:46:54.742Z,0.85
2023-10-29T10:49:25.301Z,0.90
2023-10-29T10:51:57.119Z,1.13
2023-10-29T10:56:53.767Z,0.60
2023-10-29T10:59:21.811Z,0.68
2023-10-29T11:01:49.988Z,1.23
2023-10-29T11:04:18.378Z,1.27
2023-10-29T11:06:46.349Z,3.20
2023-10-29T11:09:14.646Z,1.40
2023-10-29T11:11:52.388Z,1.20
2023-10-29T11:14:20.904Z,1.35
2023-10-29T11:16:55.696Z,1.10
2023-10-29T11:19:45.504Z,0.90
2023-10-29T11:22:30.418Z,1.02
2023-10-29T11:25:06.762Z,1.60
2023-10-29T11:27:44.485Z,5.20
2023-10-29T11:30:19.317Z,2.38
2023-10-29T11:33:08.678Z,1.70
2023-10-29T11:35:35.938Z,1.00
2023-10-29T11:38:34.360Z,0.90
2023-10-29T11:41:47.337Z,0.80
2023-10-29T11:44:23.218Z,0.73
2023-10-29T11:46:59.196Z,0.70
2023-10-29T11:49:27.504Z,0.65
2023-10-29T11:52:02.756Z,0.75
2023-10-29T11:54:33.675Z,0.63
2023-10-29T11:57:01.061Z,0.68
2023-10-29T11:59:27.969Z,0.68
2023-10-29T12:01:55.337Z,0.75
2023-10-29T12:04:22.327Z,0.60
2023-10-29T12:06:52.436Z,0.60
2023-10-29T12:09:25.816Z,0.68
2023-10-29T12:11:55.833Z,0.75
2023-10-29T12:14:44.949Z,0.80
2023-10-29T12:17:12.218Z,0.55
2023-10-29T12:19:42.787Z,0.50
2023-10-29T12:22:22.428Z,0.70
2023-10-29T12:25:01.427Z,0.70
2023-10-29T12:27:31.137Z,0.80
2023-10-29T12:29:58.040Z,0.70
2023-10-29T12:32:27.663Z,0.52
2023-10-29T12:34:57.905Z,0.50
2023-10-29T12:37:30.817Z,0.50
2023-10-29T12:40:01.016Z,0.60
2023-10-29T12:42:53.198Z,0.80
2023-10-29T12:45:33.850Z,0.70
2023-10-29T12:48:15.700Z,0.52
2023-10-29T12:50:52.071Z,0.68
2023-10-29T12:53:29.758Z,0.30
2023-10-29T12:56:00.284Z,0.40
2023-10-29T12:58:29.496Z,0.40
2023-10-29T13:00:58.597Z,0.50
2023-10-29T13:03:28.495Z,0.30
2023-10-29T13:05:56.068Z,0.60
2023-10-29T13:08:27.809Z,0.45
2023-10-29T13:10:54.679Z,0.50
2023-10-29T13:13:24.507Z,0.47
2023-10-29T13:15:51.873Z,0.70
2023-10-29T13:18:20.089Z,0.82
2023-10-29T13:20:47.156Z,0.40
2023-10-29T13:23:14.520Z,0.35
2023-10-29T13:25:41.707Z,0.50
2023-10-29T13:28:08.908Z,0.57
2023-10-29T13:30:36.938Z,0.60
2023-10-29T13:33:03.843Z,0.60
2023-10-29T13:35:31.644Z,0.70
2023-10-29T13:37:58.436Z,0.63
2023-10-29T13:40:26.706Z,0.68
2023-10-29T13:42:53.492Z,0.68
2023-10-29T13:45:20.337Z,0.57
2023-10-29T13:47:47.180Z,1.00
2023-10-29T13:50:14.125Z,0.50
2023-10-29T13:52:41.862Z,0.40
2023-10-29T13:55:08.826Z,0.50
2023-10-29T13:57:36.001Z,0.50
2023-10-29T14:00:03.637Z,0.30
2023-10-29T14:02:30.526Z,0.57
2023-10-29T14:04:57.951Z,0.30
2023-10-29T14:07:24.831Z,0.40
2023-10-29T14:09:51.615Z,0.40
2023-10-29T14:12:18.499Z,0.30
2023-10-29T14:14:45.362Z,0.30
2023-10-29T14:17:12.370Z,0.50
2023-10-29T14:19:39.137Z,0.32
2023-10-29T14:22:05.976Z,0.40
2023-10-29T14:24:32.925Z,0.30
2023-10-29T14:27:00.006Z,0.55
2023-10-29T14:29:27.197Z,0.25
2023-10-29T14:31:55.070Z,0.40
2023-10-29T14:34:22.297Z,0.20
2023-10-29T14:36:49.128Z,0.60
2023-10-29T14:39:16.575Z,0.20
2023-10-29T14:41:43.415Z,0.47
2023-10-29T14:44:10.736Z,0.30
2023-10-29T14:46:38.355Z,0.30
2023-10-29T14:49:05.314Z,0.38
2023-10-29T14:51:32.079Z,0.20
2023-10-29T14:53:59.799Z,0.35
2023-10-29T14:56:26.641Z,0.38
2023-10-29T14:58:53.975Z,0.35
2023-10-29T15:01:22.763Z,0.32
2023-10-29T15:03:51.301Z,0.40
2023-10-29T15:06:19.604Z,0.50
2023-10-29T15:08:46.588Z,0.47
2023-10-29T15:11:19.746Z,0.30
2023-10-29T15:13:53.319Z,0.30
2023-10-29T15:16:20.140Z,0.43
2023-10-29T15:18:47.942Z,0.40
2023-10-29T15:21:17.065Z,0.30
2023-10-29T15:23:43.919Z,0.63
2023-10-29T15:26:17.514Z,0.50
2023-10-29T15:28:45.191Z,0.30
2023-10-29T15:31:12.510Z,0.38
2023-10-29T15:33:39.972Z,0.40
2023-10-29T15:36:09.541Z,0.40
2023-10-29T15:38:37.321Z,0.35
2023-10-29T15:41:05.516Z,0.30
2023-10-29T15:43:34.643Z,0.45
2023-10-29T15:46:01.892Z,0.30
2023-10-29T15:48:28.778Z,0.40
2023-10-29T15:50:55.928Z,0.40
2023-10-29T15:53:23.757Z,0.40
2023-10-29T15:55:50.961Z,0.40
2023-10-29T15:58:20.341Z,0.30
2023-10-29T16:00:47.610Z,0.40
2023-10-29T16:03:14.688Z,0.50
2023-10-29T16:05:41.532Z,0.30
2023-10-29T16:08:08.337Z,0.30
2023-10-29T16:10:37.042Z,0.28
2023-10-29T16:13:08.060Z,0.20
2023-10-29T16:15:34.829Z,0.60
2023-10-29T16:18:03.300Z,0.30
2023-10-29T16:20:30.237Z,0.38
2023-10-29T16:22:56.983Z,0.52
2023-10-29T16:25:23.983Z,0.40
2023-10-29T16:27:50.787Z,0.38
2023-10-29T16:30:19.003Z,0.40
2023-10-29T16:32:46.171Z,0.40
2023-10-29T16:35:13.846Z,0.47
2023-10-29T16:37:40.898Z,0.35
2023-10-29T16:40:08.629Z,0.45
2023-10-29T16:42:35.958Z,0.40
2023-10-29T16:45:02.937Z,0.30
2023-10-29T16:47:29.971Z,0.50
2023-10-29T16:49:56.968Z,0.30
2023-10-29T16:52:23.712Z,0.60
2023-10-29T16:54:50.869Z,0.40
2023-10-29T16:57:17.745Z,0.47
2023-10-29T16:59:44.594Z,0.40
2023-10-29T17:02:11.546Z,0.20
2023-10-29T17:07:11.310Z,0.57
2023-10-29T17:09:40.241Z,0.40
2023-10-29T17:12:08.004Z,0.68
2023-10-29T17:14:34.892Z,0.75
2023-10-29T17:17:01.645Z,0.50
2023-10-29T17:19:28.406Z,0.50
2023-10-29T17:21:55.899Z,0.20
2023-10-29T17:24:26.938Z,0.50
2023-10-29T17:26:54.959Z,0.57
2023-10-29T17:29:23.063Z,0.30
2023-10-29T17:31:51.110Z,0.50
2023-10-29T17:34:18.357Z,0.63
2023-10-29T17:36:45.936Z,0.50
2023-10-29T17:39:16.022Z,0.60
2023-10-29T17:41:42.977Z,0.63
2023-10-29T17:44:10.207Z,0.38
2023-10-29T17:46:36.973Z,0.50
2023-10-29T17:49:04.699Z,0.40
2023-10-29T17:51:31.631Z,0.50
2023-10-29T17:53:58.551Z,0.50
2023-10-29T17:56:25.601Z,0.57
2023-10-29T17:58:53.495Z,0.68
2023-10-29T18:01:22.399Z,0.50
2023-10-29T18:03:54.631Z,0.50
2023-10-29T18:06:23.879Z,0.80
2023-10-29T18:08:51.106Z,0.50
2023-10-29T18:11:22.228Z,0.60
2023-10-29T18:13:49.072Z,0.50
2023-10-29T18:16:17.235Z,0.60
2023-10-29T18:18:44.328Z,0.60
2023-10-29T18:21:11.175Z,0.50
2023-10-29T18:23:38.216Z,0.50
2023-10-29T18:26:05.231Z,0.60
2023-10-29T18:28:32.151Z,0.50
2023-10-29T18:31:04.060Z,0.40
2023-10-29T18:36:10.390Z,0.40
2023-10-29T18:38:38.413Z,0.60
2023-10-29T18:41:19.700Z,0.50
2023-10-29T18:43:47.488Z,0.50
2023-10-29T18:46:15.922Z,0.65
2023-10-29T18:48:42.900Z,0.50
2023-10-29T18:51:10.047Z,0.70
2023-10-29T18:53:36.893Z,0.95
2023-10-29T18:56:05.504Z,0.73
2023-10-29T18:58:32.652Z,1.00
2023-10-29T19:01:12.235Z,0.70
2023-10-29T19:03:41.075Z,0.70
2023-10-29T19:06:10.316Z,1.08
2023-10-29T19:08:38.068Z,0.75
2023-10-29T19:11:10.050Z,0.75
2023-10-29T19:16:06.259Z,0.60
2023-10-29T19:18:34.818Z,0.90
2023-10-29T19:21:02.207Z,0.70
2023-10-29T19:23:29.145Z,0.77
2023-10-29T19:25:58.066Z,0.70
2023-10-29T19:28:24.964Z,0.95
2023-10-29T19:31:10.518Z,0.82
2023-10-29T19:33:41.761Z,0.60
2023-10-29T19:36:15.747Z,0.60
2023-10-29T19:38:42.847Z,0.80
2023-10-29T19:41:10.204Z,0.73
2023-10-29T19:43:37.267Z,0.90
2023-10-29T19:46:05.094Z,0.77
2023-10-29T19:48:32.143Z,0.63
2023-10-29T19:51:02.530Z,0.75
2023-10-29T19:53:30.942Z,1.13
2023-10-29T19:55:58.702Z,0.75
2023-10-29T19:58:25.849Z,1.00
2023-10-29T20:01:02.636Z,0.80
2023-10-29T20:03:29.672Z,0.82
2023-10-29T20:05:56.817Z,1.10
2023-10-29T20:08:23.711Z,0.77
2023-10-29T20:10:50.593Z,1.02
2023-10-29T20:13:18.137Z,1.23
2023-10-29T20:15:44.889Z,0.73
2023-10-29T20:18:11.718Z,1.10
2023-10-29T20:20:40.784Z,0.75
2023-10-29T20:23:07.541Z,0.70
2023-10-29T20:25:34.759Z,0.90
2023-10-29T20:28:01.606Z,0.90
2023-10-29T20:30:28.548Z,0.90
2023-10-29T20:32:55.457Z,1.00
2023-10-29T20:35:22.349Z,0.80
2023-10-29T20:37:49.140Z,1.00
2023-10-29T20:40:18.067Z,0.95
2023-10-29T20:42:44.817Z,0.80
2023-10-29T20:45:11.723Z,1.00
2023-10-29T20:47:38.493Z,1.25
2023-10-29T20:50:06.248Z,0.63
2023-10-29T20:52:33.654Z,0.63
2023-10-29T20:55:00.557Z,0.95
2023-10-29T20:57:27.552Z,0.73
2023-10-29T20:59:54.394Z,1.23
2023-10-29T21:02:21.183Z,0.80
2023-10-29T21:04:48.093Z,1.05
2023-10-29T21:07:15.907Z,0.93
2023-10-29T21:09:42.680Z,1.45
2023-10-29T21:12:10.227Z,0.90
2023-10-29T21:14:37.233Z,0.90
2023-10-29T21:17:04.315Z,1.40
2023-10-29T21:19:31.433Z,1.10
2023-10-29T21:21:58.750Z,1.10
2023-10-29T21:24:25.544Z,0.88
2023-10-29T21:26:53.112Z,1.58
2023-10-29T21:29:20.017Z,1.75
2023-10-29T21:31:47.521Z,1.00
2023-10-29T21:34:14.271Z,1.08
2023-10-29T21:36:41.060Z,1.50
2023-10-29T21:39:09.106Z,0.90
2023-10-29T21:41:35.957Z,1.00
2023-10-29T21:44:02.784Z,0.90
2023-10-29T21:46:29.628Z,1.50
2023-10-29T21:48:56.839Z,0.90
2023-10-29T21:51:24.585Z,1.58
2023-10-29T21:53:51.645Z,1.25
2023-10-29T21:56:18.457Z,0.70
2023-10-29T21:58:45.420Z,1.23
2023-10-29T22:01:22.569Z,1.05
2023-10-29T22:03:50.561Z,0.90
2023-10-29T22:06:17.639Z,0.85
2023-10-29T22:08:44.612Z,1.30
2023-10-29T22:11:13.195Z,0.88
2023-10-29T22:13:41.158Z,1.25
2023-10-29T22:16:14.054Z,0.90
2023-10-29T22:18:41.102Z,0.90
2023-10-29T22:21:14.050Z,1.23
2023-10-29T22:23:41.421Z,1.02
2023-10-29T22:26:09.360Z,1.55
2023-10-29T22:28:37.798Z,0.98
2023-10-29T22:31:05.234Z,1.10
2023-10-29T22:33:33.590Z,1.00
2023-10-29T22:36:06.880Z,1.00
2023-10-29T22:38:33.835Z,1.30
2023-10-29T22:41:09.562Z,1.15
2023-10-29T22:43:37.046Z,1.27
2023-10-29T22:46:04.402Z,1.42
2023-10-29T22:48:31.316Z,1.02
2023-10-29T22:51:02.635Z,0.75
2023-10-29T22:53:29.473Z,1.60
2023-10-29T22:56:01.136Z,1.27
2023-10-29T22:58:28.671Z,1.10
2023-10-29T23:00:55.787Z,1.50
2023-10-29T23:03:22.805Z,1.10
2023-10-29T23:05:50.003Z,1.05
2023-10-29T23:08:17.066Z,0.77
2023-10-29T23:10:43.876Z,1.30
2023-10-29T23:13:10.658Z,1.05
2023-10-29T23:15:38.469Z,1.33
2023-10-29T23:18:05.867Z,1.30
2023-10-29T23:20:32.720Z,1.00
2023-10-29T23:22:59.674Z,1.00
2023-10-29T23:25:26.502Z,0.80
2023-10-29T23:27:53.436Z,1.00
2023-10-29T23:30:20.223Z,1.38
2023-10-29T23:32:47.088Z,1.10
2023-10-29T23:35:13.861Z,0.93
2023-10-29T23:37:40.691Z,1.33
2023-10-29T23:40:08.197Z,0.82
2023-10-29T23:42:35.092Z,1.15
2023-10-29T23:45:02.562Z,0.90
2023-10-29T23:47:29.541Z,1.05
2023-10-29T23:49:56.363Z,1.00
2023-10-29T23:52:23.143Z,0.90
2023-10-29T23:54:49.993Z,1.00
2023-10-29T23:57:16.827Z,1.10
2023-10-29T23:59:43.807Z,1.00
